createdAt,value
2022-10-28T00:00:56.558Z,101625.53
2022-10-28T00:03:05.606Z,101632.56
2022-10-28T00:05:07.806Z,101635.09
2022-10-28T00:07:09.741Z,101633.66
2022-10-28T00:09:14.645Z,101636.47
2022-10-28T00:11:20.401Z,101630.28
2022-10-28T00:13:22.260Z,101626.03
2022-10-28T00:15:25.217Z,101625.81
2022-10-28T00:17:28.193Z,101631.38
2022-10-28T00:19:31.219Z,101625.59
2022-10-28T00:21:42.943Z,101623.34
2022-10-28T00:23:45.566Z,101621.69
2022-10-28T00:25:47.464Z,101617.97
2022-10-28T00:27:49.411Z,101618.50
2022-10-28T00:29:54.039Z,101623.31
2022-10-28T00:31:56.020Z,101609.84
2022-10-28T00:34:02.898Z,101618.59
2022-10-28T00:36:23.907Z,101611.63
2022-10-28T00:38:25.707Z,101603.91
2022-10-28T00:40:34.986Z,101610.25
2022-10-28T00:42:37.910Z,101608.09
2022-10-28T00:44:53.485Z,101603.53
2022-10-28T00:46:56.531Z,101601.81
2022-10-28T00:49:06.415Z,101603.19
2022-10-28T00:51:09.757Z,101612.81
2022-10-28T00:53:19.430Z,101609.22
2022-10-28T00:55:23.120Z,101612.22
2022-10-28T00:57:28.983Z,101615.28
2022-10-28T00:59:38.095Z,101613.00
2022-10-28T01:01:40.262Z,101618.63
2022-10-28T01:03:43.344Z,101613.09
2022-10-28T01:05:48.122Z,101600.06
2022-10-28T01:07:52.647Z,101602.94
2022-10-28T01:09:55.984Z,101603.19
2022-10-28T01:12:18.259Z,101603.44
2022-10-28T01:15:03.018Z,101603.91
2022-10-28T01:17:43.375Z,101590.72
2022-10-28T01:19:58.707Z,101589.28
2022-10-28T01:22:24.100Z,101602.88
2022-10-28T01:24:36.189Z,101591.59
2022-10-28T01:27:13.519Z,101595.03
2022-10-28T01:29:24.128Z,101596.88
2022-10-28T01:31:45.217Z,101593.44
2022-10-28T01:34:06.027Z,101595.16
2022-10-28T01:36:35.677Z,101598.66
2022-10-28T01:39:01.491Z,101591.47
2022-10-28T01:41:15.384Z,101591.81
2022-10-28T01:43:42.213Z,101584.41
2022-10-28T01:45:51.100Z,101594.00
2022-10-28T01:47:59.451Z,101588.25
2022-10-28T01:50:08.514Z,101588.25
2022-10-28T01:52:15.031Z,101580.75
2022-10-28T01:54:22.384Z,101581.66
2022-10-28T01:56:31.286Z,101596.13
2022-10-28T01:58:35.479Z,101587.28
2022-10-28T02:00:38.803Z,101588.25
2022-10-28T02:02:43.525Z,101594.69
2022-10-28T02:04:45.518Z,101591.97
2022-10-28T02:06:52.036Z,101587.22
2022-10-28T02:09:15.231Z,101582.72
2022-10-28T02:11:22.731Z,101582.09
2022-10-28T02:13:38.228Z,101586.47
2022-10-28T02:16:03.014Z,101577.16
2022-10-28T02:18:22.835Z,101576.97
2022-10-28T02:20:36.186Z,101573.47
2022-10-28T02:22:44.664Z,101570.56
2022-10-28T02:25:18.891Z,101572.75
2022-10-28T02:28:07.118Z,101567.81
2022-10-28T02:30:11.476Z,101568.47
2022-10-28T02:32:23.142Z,101564.59
2022-10-28T02:34:31.228Z,101563.97
2022-10-28T02:36:38.380Z,101551.19
2022-10-28T02:38:50.270Z,101547.91
2022-10-28T02:40:56.855Z,101543.03
2022-10-28T02:43:02.932Z,101536.34
2022-10-28T02:45:17.796Z,101531.63
2022-10-28T02:47:25.471Z,101530.56
2022-10-28T02:49:31.380Z,101531.69
2022-10-28T02:51:45.254Z,101525.16
2022-10-28T02:54:14.566Z,101530.66
2022-10-28T02:56:18.317Z,101525.78
2022-10-28T02:58:20.868Z,101532.13
2022-10-28T03:00:25.236Z,101527.47
2022-10-28T03:02:28.398Z,101532.41
2022-10-28T03:04:31.839Z,101527.97
2022-10-28T03:06:33.772Z,101534.84
2022-10-28T03:08:36.695Z,101545.63
2022-10-28T03:10:39.587Z,101545.13
2022-10-28T03:12:42.392Z,101538.56
2022-10-28T03:14:44.285Z,101535.00
2022-10-28T03:16:46.186Z,101530.81
2022-10-28T03:18:49.453Z,101529.63
2022-10-28T03:20:54.246Z,101533.25
2022-10-28T03:22:58.706Z,101532.41
2022-10-28T03:25:00.522Z,101531.09
2022-10-28T03:27:02.316Z,101525.53
2022-10-28T03:29:04.197Z,101530.00
2022-10-28T03:31:06.119Z,101529.28
2022-10-28T03:33:07.937Z,101525.91
2022-10-28T03:35:10.036Z,101523.75
2022-10-28T03:37:12.268Z,101528.56
2022-10-28T03:39:14.121Z,101528.38
2022-10-28T03:41:15.981Z,101520.28
2022-10-28T03:43:24.842Z,101516.84
2022-10-28T03:45:26.807Z,101513.13
2022-10-28T03:47:29.652Z,101509.84
2022-10-28T03:49:37.377Z,101505.84
2022-10-28T03:51:40.213Z,101509.66
2022-10-28T03:53:43.132Z,101512.59
2022-10-28T03:55:45.107Z,101507.41
2022-10-28T03:57:48.070Z,101507.38
2022-10-28T03:59:49.945Z,101508.25
2022-10-28T04:01:52.959Z,101507.34
2022-10-28T04:03:55.001Z,101506.53
2022-10-28T04:05:56.940Z,101513.06
2022-10-28T04:07:58.791Z,101519.00
2022-10-28T04:10:01.614Z,101514.19
2022-10-28T04:14:10.442Z,101516.97
2022-10-28T04:16:12.230Z,101524.19
2022-10-28T04:18:14.072Z,101521.00
2022-10-28T04:20:15.994Z,101521.91
2022-10-28T04:22:20.010Z,101522.75
2022-10-28T04:24:23.022Z,101522.28
2022-10-28T04:26:24.914Z,101513.16
2022-10-28T04:28:26.842Z,101516.75
2022-10-28T04:30:30.745Z,101516.56
2022-10-28T04:32:32.667Z,101513.97
2022-10-28T04:34:34.528Z,101512.84
2022-10-28T04:36:37.387Z,101503.25
2022-10-28T04:38:40.207Z,101502.78
2022-10-28T04:40:42.271Z,101506.34
2022-10-28T04:42:44.231Z,101501.31
2022-10-28T04:44:46.149Z,101498.13
2022-10-28T04:46:48.066Z,101499.88
2022-10-28T04:48:50.095Z,101499.72
2022-10-28T04:50:53.619Z,101495.81
2022-10-28T04:52:56.563Z,101488.63
2022-10-28T04:54:58.653Z,101493.31
2022-10-28T04:57:00.594Z,101482.63
2022-10-28T04:59:03.568Z,101480.22
2022-10-28T05:01:09.533Z,101485.81
2022-10-28T05:03:11.430Z,101480.38
2022-10-28T05:05:14.722Z,101483.75
2022-10-28T05:07:18.707Z,101483.66
2022-10-28T05:09:23.151Z,101475.50
2022-10-28T05:11:25.121Z,101482.06
2022-10-28T05:13:26.961Z,101483.06
2022-10-28T05:15:28.958Z,101478.63
2022-10-28T05:17:30.786Z,101474.75
2022-10-28T05:19:32.604Z,101479.81
2022-10-28T05:21:34.498Z,101474.47
2022-10-28T05:23:37.397Z,101471.72
2022-10-28T05:25:39.358Z,101467.66
2022-10-28T05:27:41.332Z,101462.84
2022-10-28T05:29:43.254Z,101467.41
2022-10-28T05:31:45.688Z,101465.56
2022-10-28T05:33:49.673Z,101459.72
2022-10-28T05:35:51.943Z,101456.34
2022-10-28T05:37:53.876Z,101459.22
2022-10-28T05:39:55.863Z,101461.88
2022-10-28T05:41:57.743Z,101457.69
2022-10-28T05:43:59.790Z,101462.97
2022-10-28T05:46:03.099Z,101449.13
2022-10-28T05:48:05.686Z,101454.63
2022-10-28T05:50:07.915Z,101456.53
2022-10-28T05:52:10.799Z,101459.97
2022-10-28T05:54:16.751Z,101458.53
2022-10-28T05:56:18.918Z,101459.91
2022-10-28T05:58:20.901Z,101456.63
2022-10-28T06:00:25.507Z,101454.94
2022-10-28T06:02:27.339Z,101453.41
2022-10-28T06:04:31.310Z,101448.31
2022-10-28T06:06:33.322Z,101452.09
2022-10-28T06:08:35.261Z,101454.88
2022-10-28T06:10:37.178Z,101450.50
2022-10-28T06:12:43.265Z,101459.00
2022-10-28T06:14:45.181Z,101455.03
2022-10-28T06:16:47.239Z,101452.84
2022-10-28T06:18:49.487Z,101453.94
2022-10-28T06:20:56.863Z,101453.13
2022-10-28T06:22:58.725Z,101452.25
2022-10-28T06:25:00.633Z,101447.25
2022-10-28T06:27:02.815Z,101449.91
2022-10-28T06:29:04.701Z,101449.13
2022-10-28T06:31:07.975Z,101447.47
2022-10-28T06:33:09.855Z,101445.34
2022-10-28T06:35:11.780Z,101461.16
2022-10-28T06:37:13.846Z,101455.47
2022-10-28T06:39:15.922Z,101457.34
2022-10-28T06:41:18.825Z,101459.53
2022-10-28T06:43:20.722Z,101441.28
2022-10-28T06:45:23.654Z,101439.94
2022-10-28T06:47:27.217Z,101460.72
2022-10-28T06:49:29.565Z,101465.84
2022-10-28T06:51:33.524Z,101474.78
2022-10-28T06:53:35.532Z,101467.91
2022-10-28T06:55:37.483Z,101471.03
2022-10-28T06:57:39.355Z,101474.50
2022-10-28T06:59:42.428Z,101467.25
2022-10-28T07:01:44.900Z,101472.28
2022-10-28T07:03:48.020Z,101475.81
2022-10-28T07:05:51.736Z,101473.16
2022-10-28T07:07:54.234Z,101475.06
2022-10-28T07:09:56.347Z,101474.84
2022-10-28T07:12:04.575Z,101477.47
2022-10-28T07:14:07.061Z,101471.09
2022-10-28T07:16:09.253Z,101460.63
2022-10-28T07:18:11.351Z,101464.84
2022-10-28T07:20:13.332Z,101459.00
2022-10-28T07:22:15.291Z,101455.72
2022-10-28T07:24:17.280Z,101458.47
2022-10-28T07:26:19.205Z,101452.28
2022-10-28T07:28:22.885Z,101444.50
2022-10-28T07:30:26.229Z,101448.38
2022-10-28T07:32:32.777Z,101448.41
2022-10-28T07:34:34.777Z,101446.72
2022-10-28T07:36:36.920Z,101449.41
2022-10-28T07:38:38.993Z,101454.47
2022-10-28T07:40:40.859Z,101457.38
2022-10-28T07:42:42.810Z,101452.69
2022-10-28T07:44:46.731Z,101449.63
2022-10-28T07:46:54.247Z,101450.25
2022-10-28T07:48:59.227Z,101443.25
2022-10-28T07:51:02.693Z,101434.84
2022-10-28T07:53:04.745Z,101434.69
2022-10-28T07:55:07.967Z,101435.78
2022-10-28T07:57:09.855Z,101434.66
2022-10-28T07:59:11.713Z,101423.63
2022-10-28T08:01:15.869Z,101424.50
2022-10-28T08:03:18.897Z,101430.78
2022-10-28T08:05:20.788Z,101425.03
2022-10-28T08:07:23.571Z,101426.19
2022-10-28T08:09:25.498Z,101411.75
2022-10-28T08:11:27.372Z,101425.09
2022-10-28T08:13:29.193Z,101418.22
2022-10-28T08:15:31.090Z,101421.25
2022-10-28T08:17:33.982Z,101420.97
2022-10-28T08:19:35.919Z,101418.19
2022-10-28T08:21:38.736Z,101413.09
2022-10-28T08:23:41.752Z,101409.78
2022-10-28T08:25:52.160Z,101404.53
2022-10-28T08:27:55.106Z,101405.38
2022-10-28T08:29:57.024Z,101413.75
2022-10-28T08:31:58.884Z,101413.91
2022-10-28T08:34:00.934Z,101405.75
2022-10-28T08:36:02.814Z,101410.41
2022-10-28T08:38:05.070Z,101414.63
2022-10-28T08:40:10.378Z,101410.28
2022-10-28T08:42:46.960Z,101410.28
2022-10-28T08:45:15.769Z,101405.34
2022-10-28T08:47:45.315Z,101406.19
2022-10-28T08:49:54.704Z,101404.41
2022-10-28T08:52:38.778Z,101398.09
2022-10-28T08:54:48.175Z,101401.56
2022-10-28T08:56:55.231Z,101394.53
2022-10-28T08:59:01.336Z,101396.59
2022-10-28T09:01:09.443Z,101385.66
2022-10-28T09:03:33.263Z,101392.16
2022-10-28T09:05:42.572Z,101387.72
2022-10-28T09:07:44.427Z,101393.84
2022-10-28T09:09:48.559Z,101387.47
2022-10-28T09:12:01.874Z,101398.34
2022-10-28T09:14:20.361Z,101387.13
2022-10-28T09:16:45.986Z,101389.94
2022-10-28T09:18:52.723Z,101396.41
2022-10-28T09:20:58.236Z,101396.72
2022-10-28T09:23:24.406Z,101398.66
2022-10-28T09:25:43.668Z,101399.00
2022-10-28T09:28:04.194Z,101392.88
2022-10-28T09:30:31.733Z,101393.25
2022-10-28T09:33:15.599Z,101387.66
2022-10-28T09:35:22.429Z,101395.09
2022-10-28T09:37:38.869Z,101390.88
2022-10-28T09:39:44.224Z,101390.81
2022-10-28T09:41:49.193Z,101392.31
2022-10-28T09:43:55.455Z,101388.34
2022-10-28T09:46:26.132Z,101384.69
2022-10-28T09:48:33.355Z,101375.28
2022-10-28T09:50:35.377Z,101377.16
2022-10-28T09:52:49.475Z,101382.50
2022-10-28T09:54:53.829Z,101375.91
2022-10-28T09:56:55.773Z,101378.72
2022-10-28T09:59:01.451Z,101366.91
2022-10-28T10:01:05.143Z,101379.34
2022-10-28T10:03:07.020Z,101378.66
2022-10-28T10:05:17.893Z,101372.56
2022-10-28T10:07:30.800Z,101366.50
2022-10-28T10:09:36.005Z,101370.69
2022-10-28T10:11:45.141Z,101363.78
2022-10-28T10:13:48.381Z,101364.47
2022-10-28T10:16:13.544Z,101360.47
2022-10-28T10:18:23.677Z,101363.69
2022-10-28T10:20:25.714Z,101370.72
2022-10-28T10:22:31.977Z,101365.94
2022-10-28T10:24:36.057Z,101368.53
2022-10-28T10:26:37.939Z,101367.75
2022-10-28T10:28:48.696Z,101361.50
2022-10-28T10:30:55.000Z,101353.81
2022-10-28T10:33:01.948Z,101351.22
2022-10-28T10:35:28.871Z,101354.22
2022-10-28T10:37:41.472Z,101341.13
2022-10-28T10:39:43.382Z,101348.78
2022-10-28T10:41:46.282Z,101339.28
2022-10-28T10:43:48.154Z,101341.78
2022-10-28T10:45:59.155Z,101335.09
2022-10-28T10:48:13.767Z,101339.31
2022-10-28T10:50:29.105Z,101327.44
2022-10-28T10:52:32.159Z,101334.34
2022-10-28T10:54:36.218Z,101325.63
2022-10-28T10:56:38.609Z,101330.78
2022-10-28T10:58:54.263Z,101323.84
2022-10-28T11:00:58.979Z,101314.22
2022-10-28T11:03:01.584Z,101312.59
2022-10-28T11:05:07.891Z,101310.72
2022-10-28T11:07:16.354Z,101303.81
2022-10-28T11:09:21.137Z,101312.56
2022-10-28T11:11:39.494Z,101304.69
2022-10-28T11:13:45.982Z,101303.88
2022-10-28T11:16:01.170Z,101299.50
2022-10-28T11:18:23.847Z,101296.13
2022-10-28T11:20:55.297Z,101290.91
2022-10-28T11:23:20.850Z,101295.31
2022-10-28T11:25:40.951Z,101297.03
2022-10-28T11:28:18.028Z,101298.00
2022-10-28T11:30:27.645Z,101286.63
2022-10-28T11:33:01.407Z,101299.75
2022-10-28T11:35:16.179Z,101302.25
2022-10-28T11:37:31.271Z,101287.59
2022-10-28T11:40:10.611Z,101280.66
2022-10-28T11:42:35.549Z,101282.31
2022-10-28T11:44:59.616Z,101286.59
2022-10-28T11:47:07.639Z,101277.03
2022-10-28T11:49:28.847Z,101300.34
2022-10-28T11:51:47.596Z,101291.69
2022-10-28T11:54:08.014Z,101290.84
2022-10-28T11:56:39.568Z,101284.06
2022-10-28T11:58:59.226Z,101280.66
2022-10-28T12:01:10.853Z,101281.53
2022-10-28T12:03:36.073Z,101276.31
2022-10-28T12:05:52.755Z,101274.63
2022-10-28T12:08:13.630Z,101267.69
2022-10-28T12:10:32.592Z,101274.56
2022-10-28T12:12:51.246Z,101268.41
2022-10-28T12:15:07.124Z,101277.94
2022-10-28T12:17:42.832Z,101278.03
2022-10-28T12:20:05.560Z,101271.97
2022-10-28T12:22:15.461Z,101264.16
2022-10-28T12:24:22.391Z,101265.88
2022-10-28T12:26:46.897Z,101261.50
2022-10-28T12:29:03.651Z,101258.03
2022-10-28T12:31:17.529Z,101253.66
2022-10-28T12:33:22.484Z,101254.63
2022-10-28T12:35:31.021Z,101256.38
2022-10-28T12:37:44.720Z,101257.25
2022-10-28T12:40:32.054Z,101252.06
2022-10-28T12:42:42.388Z,101240.81
2022-10-28T12:44:47.729Z,101239.03
2022-10-28T12:46:57.711Z,101229.50
2022-10-28T12:49:06.566Z,101236.44
2022-10-28T12:51:33.830Z,101239.06
2022-10-28T12:53:49.352Z,101231.25
2022-10-28T12:55:53.853Z,101226.03
2022-10-28T12:58:16.629Z,101222.56
2022-10-28T13:00:25.929Z,101225.19
2022-10-28T13:02:55.226Z,101221.69
2022-10-28T13:05:05.111Z,101214.75
2022-10-28T13:07:24.939Z,101221.69
2022-10-28T13:09:49.199Z,101221.72
2022-10-28T13:12:29.622Z,101218.22
2022-10-28T13:14:51.805Z,101219.94
2022-10-28T13:17:31.898Z,101216.50
2022-10-28T13:19:58.542Z,101222.56
2022-10-28T13:22:23.300Z,101228.63
2022-10-28T13:24:40.643Z,101220.81
2022-10-28T13:26:45.598Z,101222.56
2022-10-28T13:29:24.118Z,101222.56
2022-10-28T13:31:44.601Z,101226.03
2022-10-28T13:34:00.300Z,101226.06
2022-10-28T13:36:31.690Z,101234.69
2022-10-28T13:38:35.662Z,101235.56
2022-10-28T13:40:43.879Z,101237.28
2022-10-28T13:42:48.665Z,101239.03
2022-10-28T13:44:51.892Z,101240.75
2022-10-28T13:47:02.067Z,101247.66
2022-10-28T13:49:28.591Z,101251.09
2022-10-28T13:51:33.328Z,101260.63
2022-10-28T13:53:57.028Z,101265.78
2022-10-28T13:56:29.781Z,101290.00
2022-10-28T13:58:32.786Z,101295.22
2022-10-28T14:00:36.687Z,101309.13
2022-10-28T14:02:48.434Z,101316.03
2022-10-28T14:05:03.372Z,101317.78
2022-10-28T14:07:11.378Z,101316.03
2022-10-28T14:09:27.915Z,101321.19
2022-10-28T14:11:32.865Z,101315.94
2022-10-28T14:13:49.702Z,101317.66
2022-10-28T14:16:14.856Z,101316.84
2022-10-28T14:20:46.819Z,101314.16
2022-10-28T14:22:49.067Z,101301.97
2022-10-28T14:25:27.688Z,101314.09
2022-10-28T14:27:30.308Z,101308.81
2022-10-28T14:29:43.907Z,101300.13
2022-10-28T14:31:52.787Z,101296.69
2022-10-28T14:34:14.727Z,101287.06
2022-10-28T14:36:19.851Z,101283.44
2022-10-28T14:38:39.463Z,101275.59
2022-10-28T14:40:52.514Z,101256.47
2022-10-28T14:43:04.886Z,101248.63
2022-10-28T14:45:27.813Z,101237.28
2022-10-28T14:47:57.633Z,101229.44
2022-10-28T14:50:04.101Z,101238.81
2022-10-28T14:52:17.865Z,101235.31
2022-10-28T14:54:36.592Z,101230.09
2022-10-28T14:56:46.910Z,101212.72
2022-10-28T14:58:50.661Z,101217.00
2022-10-28T15:01:16.721Z,101216.09
2022-10-28T15:03:19.844Z,101223.88
2022-10-28T15:05:26.793Z,101217.69
2022-10-28T15:07:32.838Z,101212.56
2022-10-28T15:09:43.799Z,101212.53
2022-10-28T15:12:11.416Z,101211.63
2022-10-28T15:14:26.421Z,101203.78
2022-10-28T15:16:28.357Z,101207.22
2022-10-28T15:18:30.378Z,101202.00
2022-10-28T15:20:35.086Z,101202.06
2022-10-28T15:22:37.092Z,101200.22
2022-10-28T15:24:43.125Z,101199.34
2022-10-28T15:26:54.913Z,101190.66
2022-10-28T15:28:57.077Z,101184.63
2022-10-28T15:30:59.956Z,101180.16
2022-10-28T15:33:21.731Z,101167.16
2022-10-28T15:35:38.425Z,101162.72
2022-10-28T15:37:41.612Z,101167.91
2022-10-28T15:39:46.026Z,101159.31
2022-10-28T15:41:54.042Z,101161.81
2022-10-28T15:44:03.468Z,101161.75
2022-10-28T15:46:16.480Z,101155.75
2022-10-28T15:48:27.779Z,101154.84
2022-10-28T15:50:35.265Z,101147.97
2022-10-28T15:52:40.132Z,101149.75
2022-10-28T15:54:42.470Z,101146.19
2022-10-28T15:56:57.304Z,101143.72
2022-10-28T15:59:07.580Z,101146.28
2022-10-28T16:01:38.459Z,101150.69
2022-10-28T16:03:46.231Z,101146.34
2022-10-28T16:05:49.021Z,101146.28
2022-10-28T16:07:53.410Z,101149.69
2022-10-28T16:09:58.060Z,101137.56
2022-10-28T16:12:04.407Z,101148.09
2022-10-28T16:14:41.078Z,101147.97
2022-10-28T16:16:43.924Z,101160.13
2022-10-28T16:18:48.492Z,101161.84
2022-10-28T16:20:50.828Z,101164.31
2022-10-28T16:22:53.353Z,101155.69
2022-10-28T16:24:56.410Z,101156.41
2022-10-28T16:27:19.445Z,101158.28
2022-10-28T16:29:21.290Z,101148.72
2022-10-28T16:31:28.180Z,101154.78
2022-10-28T16:33:34.813Z,101146.19
2022-10-28T16:35:36.776Z,101147.94
2022-10-28T16:37:44.508Z,101138.34
2022-10-28T16:39:48.045Z,101129.69
2022-10-28T16:41:50.723Z,101129.69
2022-10-28T16:43:53.475Z,101138.38
2022-10-28T16:45:57.220Z,101135.88
2022-10-28T16:47:59.072Z,101135.78
2022-10-28T16:50:01.215Z,101144.41
2022-10-28T16:52:03.277Z,101154.81
2022-10-28T16:54:10.537Z,101161.50
2022-10-28T16:56:15.623Z,101157.16
2022-10-28T16:58:21.815Z,101154.56
2022-10-28T17:00:27.873Z,101154.44
2022-10-28T17:02:33.552Z,101154.41
2022-10-28T17:04:39.045Z,101157.03
2022-10-28T17:06:41.096Z,101157.88
2022-10-28T17:09:01.917Z,101148.41
2022-10-28T17:11:05.007Z,101154.38
2022-10-28T17:13:13.734Z,101156.19
2022-10-28T17:15:16.173Z,101152.59
2022-10-28T17:17:18.784Z,101155.25
2022-10-28T17:19:20.811Z,101153.53
2022-10-28T17:21:22.703Z,101155.22
2022-10-28T17:23:26.053Z,101154.34
2022-10-28T17:25:28.236Z,101165.56
2022-10-28T17:27:30.243Z,101166.41
2022-10-28T17:29:32.140Z,101162.97
2022-10-28T17:31:34.516Z,101160.22
2022-10-28T17:33:37.323Z,101158.53
2022-10-28T17:35:39.319Z,101173.16
2022-10-28T17:37:41.643Z,101168.09
2022-10-28T17:39:43.811Z,101169.78
2022-10-28T17:41:46.278Z,101169.78
2022-10-28T17:43:48.487Z,101169.03
2022-10-28T17:45:51.359Z,101172.44
2022-10-28T17:47:53.280Z,101171.56
2022-10-28T17:49:56.254Z,101168.91
2022-10-28T17:51:58.675Z,101166.25
2022-10-28T17:54:00.777Z,101158.41
2022-10-28T17:56:05.638Z,101156.56
2022-10-28T17:58:09.263Z,101159.16
2022-10-28T18:00:11.732Z,101156.53
2022-10-28T18:02:15.432Z,101154.84
2022-10-28T18:04:26.833Z,101139.22
2022-10-28T18:06:28.955Z,101143.59
2022-10-28T18:08:36.206Z,101141.91
2022-10-28T18:10:38.167Z,101137.66
2022-10-28T18:12:40.188Z,101137.56
2022-10-28T18:14:42.348Z,101139.34
2022-10-28T18:16:46.235Z,101143.59
2022-10-28T18:18:49.459Z,101136.69
2022-10-28T18:20:56.167Z,101132.28
2022-10-28T18:22:59.456Z,101124.50
2022-10-28T18:25:01.873Z,101129.69
2022-10-28T18:27:04.081Z,101118.31
2022-10-28T18:29:10.460Z,101117.41
2022-10-28T18:31:18.526Z,101117.41
2022-10-28T18:33:22.188Z,101111.53
2022-10-28T18:35:24.561Z,101118.31
2022-10-28T18:37:28.934Z,101110.31
2022-10-28T18:39:31.123Z,101115.56
2022-10-28T18:41:38.550Z,101110.38
2022-10-28T18:43:41.541Z,101110.31
2022-10-28T18:45:44.065Z,101112.88
2022-10-28T18:47:46.281Z,101107.66
2022-10-28T18:49:48.569Z,101107.72
2022-10-28T18:51:50.959Z,101104.41
2022-10-28T18:53:53.452Z,101104.50
2022-10-28T18:56:01.601Z,101108.06
2022-10-28T18:58:03.985Z,101108.88
2022-10-28T19:00:24.200Z,101112.50
2022-10-28T19:02:28.705Z,101103.81
2022-10-28T19:04:32.696Z,101092.03
2022-10-28T19:06:35.147Z,101078.31
2022-10-28T19:08:37.883Z,101074.00
2022-10-28T19:10:40.113Z,101074.09
2022-10-28T19:12:45.018Z,101080.19
2022-10-28T19:14:51.998Z,101074.22
2022-10-28T19:16:54.057Z,101063.84
2022-10-28T19:18:57.709Z,101066.47
2022-10-28T19:21:04.546Z,101055.25
2022-10-28T19:23:06.896Z,101060.56
2022-10-28T19:25:09.444Z,101061.38
2022-10-28T19:27:12.222Z,101064.84
2022-10-28T19:29:14.251Z,101064.88
2022-10-28T19:31:21.912Z,101066.50
2022-10-28T19:33:24.067Z,101062.25
2022-10-28T19:35:26.192Z,101074.31
2022-10-28T19:37:28.456Z,101079.56
2022-10-28T19:39:30.590Z,101083.09
2022-10-28T19:41:33.635Z,101075.22
2022-10-28T19:43:36.745Z,101076.09
2022-10-28T19:45:38.807Z,101080.41
2022-10-28T19:47:41.249Z,101080.38
2022-10-28T19:49:44.508Z,101077.72
2022-10-28T19:51:47.291Z,101076.94
2022-10-28T19:53:54.579Z,101079.47
2022-10-28T19:56:01.557Z,101077.72
2022-10-28T19:58:04.238Z,101077.66
2022-10-28T20:00:07.216Z,101085.44
2022-10-28T20:02:11.985Z,101079.44
2022-10-28T20:04:14.915Z,101080.31
2022-10-28T20:06:19.885Z,101076.84
2022-10-28T20:08:25.678Z,101083.78
2022-10-28T20:10:27.768Z,101081.09
2022-10-28T20:12:30.075Z,101090.47
2022-10-28T20:14:32.776Z,101111.09
2022-10-28T20:16:35.521Z,101108.56
2022-10-28T20:18:42.656Z,101121.59
2022-10-28T20:20:44.562Z,101106.16
2022-10-28T20:22:46.838Z,101091.56
2022-10-28T20:24:49.031Z,101088.03
2022-10-28T20:26:52.359Z,101069.88
2022-10-28T20:28:54.952Z,101057.97
2022-10-28T20:31:09.066Z,101088.06
2022-10-28T20:33:13.606Z,101106.00
2022-10-28T20:35:15.584Z,101102.38
2022-10-28T20:37:19.657Z,101109.31
2022-10-28T20:39:22.368Z,101102.53
2022-10-28T20:41:25.822Z,101100.06
2022-10-28T20:43:29.265Z,101104.25
2022-10-28T20:45:31.119Z,101112.84
2022-10-28T20:47:33.211Z,101110.16
2022-10-28T20:49:35.219Z,101109.38
2022-10-28T20:51:37.183Z,101105.16
2022-10-28T20:53:39.237Z,101100.63
2022-10-28T20:55:46.380Z,101098.81
2022-10-28T20:57:48.226Z,101096.97
2022-10-28T20:59:51.827Z,101100.50
2022-10-28T21:01:59.087Z,101097.00
2022-10-28T21:04:07.266Z,101095.84
2022-10-28T21:06:10.152Z,101098.31
2022-10-28T21:08:15.404Z,101094.03
2022-10-28T21:10:19.232Z,101097.50
2022-10-28T21:12:21.247Z,101088.09
2022-10-28T21:14:23.115Z,101087.19
2022-10-28T21:16:26.016Z,101088.09
2022-10-28T21:18:27.963Z,101077.63
2022-10-28T21:20:30.305Z,101076.75
2022-10-28T21:22:36.035Z,101068.03
2022-10-28T21:24:37.970Z,101060.25
2022-10-28T21:26:39.947Z,101071.44
2022-10-28T21:28:41.939Z,101071.28
2022-10-28T21:30:43.788Z,101069.41
2022-10-28T21:32:45.733Z,101076.91
2022-10-28T21:34:47.640Z,101071.19
2022-10-28T21:36:49.537Z,101067.56
2022-10-28T21:38:56.193Z,101055.41
2022-10-28T21:41:07.705Z,101058.34
2022-10-28T21:43:11.262Z,101052.16
2022-10-28T21:45:13.224Z,101048.56
2022-10-28T21:47:15.221Z,101035.88
2022-10-28T21:49:17.137Z,101033.31
2022-10-28T21:51:22.885Z,101031.59
2022-10-28T21:53:25.975Z,101029.72
2022-10-28T21:55:45.811Z,101030.56
2022-10-28T21:57:48.321Z,101027.13
2022-10-28T21:59:50.192Z,101025.38
2022-10-28T22:01:52.278Z,101021.88
2022-10-28T22:03:55.790Z,101025.38
2022-10-28T22:05:57.743Z,101028.72
2022-10-28T22:08:02.974Z,101032.88
2022-10-28T22:10:07.273Z,101028.41
2022-10-28T22:12:09.305Z,101031.66
2022-10-28T22:14:11.182Z,101025.50
2022-10-28T22:16:15.923Z,101026.25
2022-10-28T22:18:17.745Z,101022.03
2022-10-28T22:20:19.924Z,101019.50
2022-10-28T22:22:21.886Z,101016.00
2022-10-28T22:24:23.858Z,101015.28
2022-10-28T22:26:28.720Z,101018.78
2022-10-28T22:28:30.657Z,101016.88
2022-10-28T22:30:32.699Z,101011.44
2022-10-28T22:32:34.607Z,101013.25
2022-10-28T22:34:36.537Z,101014.13
2022-10-28T22:36:40.478Z,101015.63
2022-10-28T22:38:43.133Z,101012.19
2022-10-28T22:40:44.959Z,101014.94
2022-10-28T22:42:46.816Z,101010.66
2022-10-28T22:44:48.637Z,101008.13
2022-10-28T22:46:51.566Z,101005.28
2022-10-28T22:48:54.072Z,100994.41
2022-10-28T22:50:56.343Z,100990.75
2022-10-28T22:52:58.193Z,100991.66
2022-10-28T22:55:00.080Z,100980.53
2022-10-28T22:57:01.979Z,100983.22
2022-10-28T22:59:03.913Z,100985.75
2022-10-28T23:01:17.584Z,100982.25
2022-10-28T23:03:19.859Z,100987.59
2022-10-28T23:05:21.801Z,100979.84
2022-10-28T23:07:23.657Z,100980.63
2022-10-28T23:09:25.526Z,100975.53
2022-10-28T23:11:28.237Z,100975.56
2022-10-28T23:13:30.161Z,100971.22
2022-10-28T23:15:32.194Z,100980.72
2022-10-28T23:17:34.057Z,100979.75
2022-10-28T23:19:35.928Z,100974.63
2022-10-28T23:21:37.842Z,100973.03
2022-10-28T23:23:41.078Z,100975.66
2022-10-28T23:25:43.024Z,100972.09
2022-10-28T23:27:45.092Z,100959.94
2022-10-28T23:29:47.132Z,100963.28
2022-10-28T23:31:49.044Z,100967.53
2022-10-28T23:33:52.568Z,100970.19
2022-10-28T23:35:55.634Z,100975.28
2022-10-28T23:37:59.385Z,100973.28
2022-10-28T23:40:01.326Z,100969.06
2022-10-28T23:42:03.272Z,100972.03
2022-10-28T23:44:05.235Z,100982.00
2022-10-28T23:46:07.148Z,100967.16
2022-10-28T23:48:09.057Z,100969.84
2022-10-28T23:50:11.232Z,100960.47
2022-10-28T23:52:13.158Z,100954.63
2022-10-28T23:54:15.014Z,100954.00
2022-10-28T23:56:16.959Z,100955.44
2022-10-28T23:58:21.035Z,100950.06
